sensor_id;sensor_type;location;lat;lon;timestamp;temperature;humidity
13205;DHT22;6667;52.634;9.226;2023-03-01T00:00:39;-2.10;99.90
13205;DHT22;6667;52.634;9.226;2023-03-01T00:03:06;-2.10;99.90
13205;DHT22;6667;52.634;9.226;2023-03-01T00:05:34;-2.10;99.90
13205;DHT22;6667;52.634;9.226;2023-03-01T00:08:01;-2.20;99.90
13205;DHT22;6667;52.634;9.226;2023-03-01T00:10:27;-2.20;99.90
13205;DHT22;6667;52.634;9.226;2023-03-01T00:12:54;-2.20;99.90
13205;DHT22;6667;52.634;9.226;2023-03-01T00:15:21;-2.20;99.90
13205;DHT22;6667;52.634;9.226;2023-03-01T00:17:48;-2.20;99.90
13205;DHT22;6667;52.634;9.226;2023-03-01T00:20:15;-2.30;99.90
13205;DHT22;6667;52.634;9.226;2023-03-01T00:22:43;-2.40;99.90
13205;DHT22;6667;52.634;9.226;2023-03-01T00:25:10;-2.50;99.90
13205;DHT22;6667;52.634;9.226;2023-03-01T00:27:36;-2.50;99.90
13205;DHT22;6667;52.634;9.226;2023-03-01T00:30:04;-2.50;99.90
13205;DHT22;6667;52.634;9.226;2023-03-01T00:32:31;-2.50;99.90
13205;DHT22;6667;52.634;9.226;2023-03-01T00:34:57;-2.50;99.90
13205;DHT22;6667;52.634;9.226;2023-03-01T00:37:24;-2.50;99.90
13205;DHT22;6667;52.634;9.226;2023-03-01T00:39:52;-2.50;99.90
13205;DHT22;6667;52.634;9.226;2023-03-01T00:42:19;-2.60;99.90
13205;DHT22;6667;52.634;9.226;2023-03-01T00:44:45;-2.70;99.90
13205;DHT22;6667;52.634;9.226;2023-03-01T00:47:12;-2.70;99.90
13205;DHT22;6667;52.634;9.226;2023-03-01T00:49:39;-2.60;99.90
13205;DHT22;6667;52.634;9.226;2023-03-01T00:52:06;-2.60;99.90
13205;DHT22;6667;52.634;9.226;2023-03-01T00:54:32;-2.70;99.90
13205;DHT22;6667;52.634;9.226;2023-03-01T00:57:00;-2.70;99.90
13205;DHT22;6667;52.634;9.226;2023-03-01T00:59:27;-2.70;99.90
13205;DHT22;6667;52.634;9.226;2023-03-01T01:01:54;-2.80;99.90
13205;DHT22;6667;52.634;9.226;2023-03-01T01:04:20;-2.80;99.90
13205;DHT22;6667;52.634;9.226;2023-03-01T01:06:47;-2.80;99.90
13205;DHT22;6667;52.634;9.226;2023-03-01T01:09:16;-2.90;99.90
13205;DHT22;6667;52.634;9.226;2023-03-01T01:11:43;-2.80;99.90
13205;DHT22;6667;52.634;9.226;2023-03-01T01:14:12;-2.90;99.90
13205;DHT22;6667;52.634;9.226;2023-03-01T01:16:39;-2.90;99.90
13205;DHT22;6667;52.634;9.226;2023-03-01T01:19:06;-2.90;99.90
13205;DHT22;6667;52.634;9.226;2023-03-01T01:21:33;-3.00;99.90
13205;DHT22;6667;52.634;9.226;2023-03-01T01:24:00;-3.00;99.90
13205;DHT22;6667;52.634;9.226;2023-03-01T01:26:28;-3.00;99.90
13205;DHT22;6667;52.634;9.226;2023-03-01T01:28:56;-3.00;99.90
13205;DHT22;6667;52.634;9.226;2023-03-01T01:31:25;-3.10;99.90
13205;DHT22;6667;52.634;9.226;2023-03-01T01:33:54;-3.10;99.90
13205;DHT22;6667;52.634;9.226;2023-03-01T01:36:20;-3.10;99.90
13205;DHT22;6667;52.634;9.226;2023-03-01T01:38:47;-3.10;99.90
13205;DHT22;6667;52.634;9.226;2023-03-01T01:41:15;-3.20;99.90
13205;DHT22;6667;52.634;9.226;2023-03-01T01:43:43;-3.20;99.90
13205;DHT22;6667;52.634;9.226;2023-03-01T01:46:19;-3.20;99.90
13205;DHT22;6667;52.634;9.226;2023-03-01T01:48:53;-3.20;99.90
13205;DHT22;6667;52.634;9.226;2023-03-01T01:51:23;-3.20;99.90
13205;DHT22;6667;52.634;9.226;2023-03-01T01:53:54;-3.30;99.90
13205;DHT22;6667;52.634;9.226;2023-03-01T01:56:24;-3.20;99.90
13205;DHT22;6667;52.634;9.226;2023-03-01T01:58:52;-3.30;99.90
13205;DHT22;6667;52.634;9.226;2023-03-01T02:01:19;-3.30;99.90
13205;DHT22;6667;52.634;9.226;2023-03-01T02:03:46;-3.30;99.90
13205;DHT22;6667;52.634;9.226;2023-03-01T02:06:19;-3.30;99.90
13205;DHT22;6667;52.634;9.226;2023-03-01T02:08:49;-3.30;99.90
13205;DHT22;6667;52.634;9.226;2023-03-01T02:11:18;-3.40;99.90
13205;DHT22;6667;52.634;9.226;2023-03-01T02:13:47;-3.50;99.90
13205;DHT22;6667;52.634;9.226;2023-03-01T02:16:15;-3.40;99.90
13205;DHT22;6667;52.634;9.226;2023-03-01T02:18:42;-3.50;99.90
13205;DHT22;6667;52.634;9.226;2023-03-01T02:21:21;-3.50;99.90
13205;DHT22;6667;52.634;9.226;2023-03-01T02:23:49;-3.50;99.90
13205;DHT22;6667;52.634;9.226;2023-03-01T02:26:20;-3.60;99.90
13205;DHT22;6667;52.634;9.226;2023-03-01T02:28:51;-3.60;99.90
13205;DHT22;6667;52.634;9.226;2023-03-01T02:31:19;-3.60;99.90
13205;DHT22;6667;52.634;9.226;2023-03-01T02:34:05;-3.60;99.90
13205;DHT22;6667;52.634;9.226;2023-03-01T02:36:36;-3.70;99.90
13205;DHT22;6667;52.634;9.226;2023-03-01T02:39:05;-3.70;99.90
13205;DHT22;6667;52.634;9.226;2023-03-01T02:41:35;-3.70;99.90
13205;DHT22;6667;52.634;9.226;2023-03-01T02:44:05;-3.70;99.90
13205;DHT22;6667;52.634;9.226;2023-03-01T02:46:32;-3.70;99.90
13205;DHT22;6667;52.634;9.226;2023-03-01T02:48:59;-3.70;99.90
13205;DHT22;6667;52.634;9.226;2023-03-01T02:51:37;-3.70;99.90
13205;DHT22;6667;52.634;9.226;2023-03-01T02:54:17;-3.70;99.90
13205;DHT22;6667;52.634;9.226;2023-03-01T02:56:47;-3.70;99.90
13205;DHT22;6667;52.634;9.226;2023-03-01T02:59:16;-3.70;99.90
13205;DHT22;6667;52.634;9.226;2023-03-01T03:01:44;-3.80;99.90
13205;DHT22;6667;52.634;9.226;2023-03-01T03:04:14;-3.80;99.90
13205;DHT22;6667;52.634;9.226;2023-03-01T03:06:42;-3.80;99.90
13205;DHT22;6667;52.634;9.226;2023-03-01T03:09:09;-3.90;99.90
13205;DHT22;6667;52.634;9.226;2023-03-01T03:11:36;-3.80;99.90
13205;DHT22;6667;52.634;9.226;2023-03-01T03:14:05;-3.90;99.90
13205;DHT22;6667;52.634;9.226;2023-03-01T03:16:40;-3.90;99.90
13205;DHT22;6667;52.634;9.226;2023-03-01T03:19:06;-3.90;99.90
13205;DHT22;6667;52.634;9.226;2023-03-01T03:21:34;-3.90;99.90
13205;DHT22;6667;52.634;9.226;2023-03-01T03:24:01;-3.90;99.90
13205;DHT22;6667;52.634;9.226;2023-03-01T03:26:28;-3.90;99.90
13205;DHT22;6667;52.634;9.226;2023-03-01T03:28:54;-4.00;99.90
13205;DHT22;6667;52.634;9.226;2023-03-01T03:31:22;-4.00;99.90
13205;DHT22;6667;52.634;9.226;2023-03-01T03:33:50;-4.00;99.90
13205;DHT22;6667;52.634;9.226;2023-03-01T03:36:18;-4.00;99.90
13205;DHT22;6667;52.634;9.226;2023-03-01T03:38:45;-4.00;99.90
13205;DHT22;6667;52.634;9.226;2023-03-01T03:41:12;-4.00;99.90
13205;DHT22;6667;52.634;9.226;2023-03-01T03:43:40;-4.00;99.90
13205;DHT22;6667;52.634;9.226;2023-03-01T03:46:08;-4.10;99.90
13205;DHT22;6667;52.634;9.226;2023-03-01T03:48:37;-4.10;99.90
13205;DHT22;6667;52.634;9.226;2023-03-01T03:51:06;-4.10;99.90
13205;DHT22;6667;52.634;9.226;2023-03-01T03:53:33;-4.10;99.90
13205;DHT22;6667;52.634;9.226;2023-03-01T03:56:00;-4.20;99.90
13205;DHT22;6667;52.634;9.226;2023-03-01T03:58:27;-4.20;99.90
13205;DHT22;6667;52.634;9.226;2023-03-01T04:00:55;-4.30;99.90
13205;DHT22;6667;52.634;9.226;2023-03-01T04:03:23;-4.30;99.90
13205;DHT22;6667;52.634;9.226;2023-03-01T04:05:51;-4.30;99.90
13205;DHT22;6667;52.634;9.226;2023-03-01T04:08:20;-4.40;99.90
13205;DHT22;6667;52.634;9.226;2023-03-01T04:10:49;-4.40;99.90
13205;DHT22;6667;52.634;9.226;2023-03-01T04:13:19;-4.40;99.90
13205;DHT22;6667;52.634;9.226;2023-03-01T04:15:46;-4.40;99.90
13205;DHT22;6667;52.634;9.226;2023-03-01T04:18:14;-4.40;99.90
13205;DHT22;6667;52.634;9.226;2023-03-01T04:20:41;-4.40;99.90
13205;DHT22;6667;52.634;9.226;2023-03-01T04:23:10;-4.40;99.90
13205;DHT22;6667;52.634;9.226;2023-03-01T04:25:42;-4.40;99.90
13205;DHT22;6667;52.634;9.226;2023-03-01T04:28:11;-4.40;99.90
13205;DHT22;6667;52.634;9.226;2023-03-01T04:30:38;-4.50;99.90
13205;DHT22;6667;52.634;9.226;2023-03-01T04:33:08;-4.40;99.90
13205;DHT22;6667;52.634;9.226;2023-03-01T04:35:36;-4.40;99.90
13205;DHT22;6667;52.634;9.226;2023-03-01T04:38:03;-4.40;99.90
13205;DHT22;6667;52.634;9.226;2023-03-01T04:40:30;-4.50;99.90
13205;DHT22;6667;52.634;9.226;2023-03-01T04:42:58;-4.50;99.90
13205;DHT22;6667;52.634;9.226;2023-03-01T04:45:25;-4.40;99.90
13205;DHT22;6667;52.634;9.226;2023-03-01T04:47:53;-4.40;99.90
13205;DHT22;6667;52.634;9.226;2023-03-01T04:50:20;-4.50;99.90
13205;DHT22;6667;52.634;9.226;2023-03-01T04:52:49;-4.60;99.90
13205;DHT22;6667;52.634;9.226;2023-03-01T04:55:15;-4.50;99.90
13205;DHT22;6667;52.634;9.226;2023-03-01T04:57:42;-4.60;99.90
13205;DHT22;6667;52.634;9.226;2023-03-01T05:00:13;-4.60;99.90
13205;DHT22;6667;52.634;9.226;2023-03-01T05:02:48;-4.60;99.90
13205;DHT22;6667;52.634;9.226;2023-03-01T05:05:19;-4.60;99.90
13205;DHT22;6667;52.634;9.226;2023-03-01T05:07:46;-4.60;99.90
13205;DHT22;6667;52.634;9.226;2023-03-01T05:10:12;-4.60;99.90
13205;DHT22;6667;52.634;9.226;2023-03-01T05:12:39;-4.60;99.90
13205;DHT22;6667;52.634;9.226;2023-03-01T05:15:07;-4.60;99.90
13205;DHT22;6667;52.634;9.226;2023-03-01T05:17:35;-4.70;99.90
13205;DHT22;6667;52.634;9.226;2023-03-01T05:20:02;-4.70;99.90
13205;DHT22;6667;52.634;9.226;2023-03-01T05:22:32;-4.70;99.90
13205;DHT22;6667;52.634;9.226;2023-03-01T05:24:59;-4.70;99.90
13205;DHT22;6667;52.634;9.226;2023-03-01T05:27:25;-4.80;99.90
13205;DHT22;6667;52.634;9.226;2023-03-01T05:29:52;-4.80;99.90
13205;DHT22;6667;52.634;9.226;2023-03-01T05:32:19;-4.80;99.90
13205;DHT22;6667;52.634;9.226;2023-03-01T05:34:47;-4.70;99.90
13205;DHT22;6667;52.634;9.226;2023-03-01T05:37:14;-4.70;99.90
13205;DHT22;6667;52.634;9.226;2023-03-01T05:39:41;-4.70;99.90
13205;DHT22;6667;52.634;9.226;2023-03-01T05:42:10;-4.70;99.90
13205;DHT22;6667;52.634;9.226;2023-03-01T05:44:37;-4.70;99.90
13205;DHT22;6667;52.634;9.226;2023-03-01T05:47:04;-4.80;99.90
13205;DHT22;6667;52.634;9.226;2023-03-01T05:49:31;-4.80;99.90
13205;DHT22;6667;52.634;9.226;2023-03-01T05:51:59;-4.80;99.90
13205;DHT22;6667;52.634;9.226;2023-03-01T05:54:26;-4.80;99.90
13205;DHT22;6667;52.634;9.226;2023-03-01T05:56:53;-4.80;99.90
13205;DHT22;6667;52.634;9.226;2023-03-01T05:59:20;-4.80;99.90
13205;DHT22;6667;52.634;9.226;2023-03-01T06:01:46;-4.80;99.90
13205;DHT22;6667;52.634;9.226;2023-03-01T06:04:13;-4.80;99.90
13205;DHT22;6667;52.634;9.226;2023-03-01T06:06:40;-4.80;99.90
13205;DHT22;6667;52.634;9.226;2023-03-01T06:09:08;-4.80;99.90
13205;DHT22;6667;52.634;9.226;2023-03-01T06:11:35;-4.80;99.90
13205;DHT22;6667;52.634;9.226;2023-03-01T06:14:02;-4.80;99.90
13205;DHT22;6667;52.634;9.226;2023-03-01T06:16:29;-4.90;99.90
13205;DHT22;6667;52.634;9.226;2023-03-01T06:18:56;-5.00;99.90
13205;DHT22;6667;52.634;9.226;2023-03-01T06:21:22;-4.90;99.90
13205;DHT22;6667;52.634;9.226;2023-03-01T06:23:49;-5.00;99.90
13205;DHT22;6667;52.634;9.226;2023-03-01T06:26:18;-4.90;99.90
13205;DHT22;6667;52.634;9.226;2023-03-01T06:28:45;-4.90;99.90
13205;DHT22;6667;52.634;9.226;2023-03-01T06:31:12;-4.90;99.90
13205;DHT22;6667;52.634;9.226;2023-03-01T06:33:39;-4.80;99.90
13205;DHT22;6667;52.634;9.226;2023-03-01T06:36:06;-4.70;99.90
13205;DHT22;6667;52.634;9.226;2023-03-01T06:38:33;-4.60;99.90
13205;DHT22;6667;52.634;9.226;2023-03-01T06:41:00;-4.40;99.90
13205;DHT22;6667;52.634;9.226;2023-03-01T06:43:28;-4.30;99.90
13205;DHT22;6667;52.634;9.226;2023-03-01T06:45:55;-4.10;99.90
13205;DHT22;6667;52.634;9.226;2023-03-01T06:48:22;-4.00;99.90
13205;DHT22;6667;52.634;9.226;2023-03-01T06:50:48;-3.80;99.90
13205;DHT22;6667;52.634;9.226;2023-03-01T06:53:15;-3.60;99.90
13205;DHT22;6667;52.634;9.226;2023-03-01T06:55:42;-3.40;99.90
13205;DHT22;6667;52.634;9.226;2023-03-01T06:58:09;-3.20;99.90
13205;DHT22;6667;52.634;9.226;2023-03-01T07:00:37;-3.10;99.90
13205;DHT22;6667;52.634;9.226;2023-03-01T07:03:06;-2.80;99.90
13205;DHT22;6667;52.634;9.226;2023-03-01T07:05:33;-2.70;99.90
13205;DHT22;6667;52.634;9.226;2023-03-01T07:08:00;-2.60;99.90
13205;DHT22;6667;52.634;9.226;2023-03-01T07:10:27;-2.30;99.90
13205;DHT22;6667;52.634;9.226;2023-03-01T07:12:55;-2.00;99.90
13205;DHT22;6667;52.634;9.226;2023-03-01T07:15:22;-1.80;99.90
13205;DHT22;6667;52.634;9.226;2023-03-01T07:17:50;-1.50;99.90
13205;DHT22;6667;52.634;9.226;2023-03-01T07:20:17;-1.30;99.90
13205;DHT22;6667;52.634;9.226;2023-03-01T07:22:44;-1.10;99.90
13205;DHT22;6667;52.634;9.226;2023-03-01T07:25:11;-0.80;99.90
13205;DHT22;6667;52.634;9.226;2023-03-01T07:27:37;-0.60;99.90
13205;DHT22;6667;52.634;9.226;2023-03-01T07:30:05;-0.30;99.90
13205;DHT22;6667;52.634;9.226;2023-03-01T07:32:32;-0.10;99.90
13205;DHT22;6667;52.634;9.226;2023-03-01T07:35:00;0.20;99.90
13205;DHT22;6667;52.634;9.226;2023-03-01T07:37:26;0.50;99.90
13205;DHT22;6667;52.634;9.226;2023-03-01T07:39:53;0.70;99.90
13205;DHT22;6667;52.634;9.226;2023-03-01T07:42:20;0.90;99.90
13205;DHT22;6667;52.634;9.226;2023-03-01T07:44:46;1.30;99.90
13205;DHT22;6667;52.634;9.226;2023-03-01T07:47:13;1.60;99.90
13205;DHT22;6667;52.634;9.226;2023-03-01T07:49:40;1.90;99.90
13205;DHT22;6667;52.634;9.226;2023-03-01T07:52:09;2.20;99.90
13205;DHT22;6667;52.634;9.226;2023-03-01T07:54:36;2.50;99.90
13205;DHT22;6667;52.634;9.226;2023-03-01T07:57:03;2.80;99.90
13205;DHT22;6667;52.634;9.226;2023-03-01T07:59:29;3.00;99.90
13205;DHT22;6667;52.634;9.226;2023-03-01T08:01:56;3.30;99.90
13205;DHT22;6667;52.634;9.226;2023-03-01T08:04:23;3.60;99.90
13205;DHT22;6667;52.634;9.226;2023-03-01T08:06:52;3.90;99.90
13205;DHT22;6667;52.634;9.226;2023-03-01T08:09:20;4.20;99.90
13205;DHT22;6667;52.634;9.226;2023-03-01T08:11:47;4.50;99.90
13205;DHT22;6667;52.634;9.226;2023-03-01T08:14:14;4.70;99.90
13205;DHT22;6667;52.634;9.226;2023-03-01T08:16:40;5.00;99.90
13205;DHT22;6667;52.634;9.226;2023-03-01T08:19:08;5.30;99.90
13205;DHT22;6667;52.634;9.226;2023-03-01T08:21:35;5.40;99.90
13205;DHT22;6667;52.634;9.226;2023-03-01T08:24:03;5.70;99.90
13205;DHT22;6667;52.634;9.226;2023-03-01T08:26:32;6.10;99.90
13205;DHT22;6667;52.634;9.226;2023-03-01T08:29:00;6.20;99.90
13205;DHT22;6667;52.634;9.226;2023-03-01T08:31:28;6.40;99.90
13205;DHT22;6667;52.634;9.226;2023-03-01T08:33:57;6.80;99.90
13205;DHT22;6667;52.634;9.226;2023-03-01T08:36:26;7.20;99.90
13205;DHT22;6667;52.634;9.226;2023-03-01T08:38:53;7.50;99.90
13205;DHT22;6667;52.634;9.226;2023-03-01T08:41:20;7.90;99.90
13205;DHT22;6667;52.634;9.226;2023-03-01T08:43:48;7.80;99.90
13205;DHT22;6667;52.634;9.226;2023-03-01T08:46:15;8.20;99.90
13205;DHT22;6667;52.634;9.226;2023-03-01T08:48:41;8.50;99.90
13205;DHT22;6667;52.634;9.226;2023-03-01T08:51:09;8.80;99.90
13205;DHT22;6667;52.634;9.226;2023-03-01T08:53:37;9.20;99.90
13205;DHT22;6667;52.634;9.226;2023-03-01T08:56:04;9.30;99.90
13205;DHT22;6667;52.634;9.226;2023-03-01T08:58:31;9.30;99.90
13205;DHT22;6667;52.634;9.226;2023-03-01T09:00:59;9.10;99.90
13205;DHT22;6667;52.634;9.226;2023-03-01T09:03:26;9.60;99.90
13205;DHT22;6667;52.634;9.226;2023-03-01T09:05:59;9.90;99.90
13205;DHT22;6667;52.634;9.226;2023-03-01T09:08:27;10.30;99.90
13205;DHT22;6667;52.634;9.226;2023-03-01T09:10:53;10.40;99.90
13205;DHT22;6667;52.634;9.226;2023-03-01T09:13:20;10.70;99.90
13205;DHT22;6667;52.634;9.226;2023-03-01T09:15:49;10.90;99.90
13205;DHT22;6667;52.634;9.226;2023-03-01T09:18:17;11.30;99.90
13205;DHT22;6667;52.634;9.226;2023-03-01T09:20:43;11.50;99.90
13205;DHT22;6667;52.634;9.226;2023-03-01T09:23:10;11.10;99.90
13205;DHT22;6667;52.634;9.226;2023-03-01T09:25:37;11.30;99.90
13205;DHT22;6667;52.634;9.226;2023-03-01T09:28:03;10.40;99.90
13205;DHT22;6667;52.634;9.226;2023-03-01T09:30:30;10.50;99.90
13205;DHT22;6667;52.634;9.226;2023-03-01T09:32:57;10.40;99.90
13205;DHT22;6667;52.634;9.226;2023-03-01T09:35:25;10.80;99.90
13205;DHT22;6667;52.634;9.226;2023-03-01T09:37:51;10.80;99.90
13205;DHT22;6667;52.634;9.226;2023-03-01T09:40:19;11.10;99.90
13205;DHT22;6667;52.634;9.226;2023-03-01T09:42:51;11.40;99.90
13205;DHT22;6667;52.634;9.226;2023-03-01T09:45:26;11.40;99.90
13205;DHT22;6667;52.634;9.226;2023-03-01T09:47:54;11.70;99.90
13205;DHT22;6667;52.634;9.226;2023-03-01T09:50:22;12.10;99.90
13205;DHT22;6667;52.634;9.226;2023-03-01T09:52:58;12.00;99.90
13205;DHT22;6667;52.634;9.226;2023-03-01T09:55:31;11.90;99.90
13205;DHT22;6667;52.634;9.226;2023-03-01T09:58:00;11.80;99.90
13205;DHT22;6667;52.634;9.226;2023-03-01T10:00:36;11.30;99.90
13205;DHT22;6667;52.634;9.226;2023-03-01T10:03:12;11.80;99.90
13205;DHT22;6667;52.634;9.226;2023-03-01T10:05:49;12.40;99.90
13205;DHT22;6667;52.634;9.226;2023-03-01T10:08:35;12.20;99.90
13205;DHT22;6667;52.634;9.226;2023-03-01T10:11:05;12.10;99.90
13205;DHT22;6667;52.634;9.226;2023-03-01T10:13:41;12.50;99.90
13205;DHT22;6667;52.634;9.226;2023-03-01T10:16:13;12.90;99.90
13205;DHT22;6667;52.634;9.226;2023-03-01T10:18:47;12.90;99.90
13205;DHT22;6667;52.634;9.226;2023-03-01T10:21:18;12.10;99.90
13205;DHT22;6667;52.634;9.226;2023-03-01T10:23:50;11.50;99.90
13205;DHT22;6667;52.634;9.226;2023-03-01T10:26:36;12.00;99.90
13205;DHT22;6667;52.634;9.226;2023-03-01T10:29:06;12.20;99.90
13205;DHT22;6667;52.634;9.226;2023-03-01T10:31:39;12.70;99.90
13205;DHT22;6667;52.634;9.226;2023-03-01T10:34:12;12.30;99.90
13205;DHT22;6667;52.634;9.226;2023-03-01T10:36:39;12.60;99.90
13205;DHT22;6667;52.634;9.226;2023-03-01T10:39:14;13.00;99.90
13205;DHT22;6667;52.634;9.226;2023-03-01T10:41:59;13.00;99.90
13205;DHT22;6667;52.634;9.226;2023-03-01T10:44:44;12.50;99.90
13205;DHT22;6667;52.634;9.226;2023-03-01T10:47:18;12.20;99.90
13205;DHT22;6667;52.634;9.226;2023-03-01T10:49:59;12.30;99.90
13205;DHT22;6667;52.634;9.226;2023-03-01T10:52:29;12.60;99.90
13205;DHT22;6667;52.634;9.226;2023-03-01T10:54:59;11.70;99.90
13205;DHT22;6667;52.634;9.226;2023-03-01T10:57:36;11.60;99.90
13205;DHT22;6667;52.634;9.226;2023-03-01T11:00:19;11.30;99.90
13205;DHT22;6667;52.634;9.226;2023-03-01T11:02:49;11.70;99.90
13205;DHT22;6667;52.634;9.226;2023-03-01T11:05:21;11.00;99.90
13205;DHT22;6667;52.634;9.226;2023-03-01T11:07:51;12.10;99.90
13205;DHT22;6667;52.634;9.226;2023-03-01T11:10:22;12.60;99.90
13205;DHT22;6667;52.634;9.226;2023-03-01T11:12:50;11.60;99.90
13205;DHT22;6667;52.634;9.226;2023-03-01T11:15:23;12.00;99.90
13205;DHT22;6667;52.634;9.226;2023-03-01T11:17:50;12.30;99.90
13205;DHT22;6667;52.634;9.226;2023-03-01T11:20:24;11.60;99.90
13205;DHT22;6667;52.634;9.226;2023-03-01T11:22:53;11.20;99.90
13205;DHT22;6667;52.634;9.226;2023-03-01T11:25:24;11.60;99.90
13205;DHT22;6667;52.634;9.226;2023-03-01T11:27:52;11.10;99.90
13205;DHT22;6667;52.634;9.226;2023-03-01T11:30:24;10.80;99.90
13205;DHT22;6667;52.634;9.226;2023-03-01T11:33:13;11.40;99.90
13205;DHT22;6667;52.634;9.226;2023-03-01T11:35:45;11.80;99.90
13205;DHT22;6667;52.634;9.226;2023-03-01T11:38:22;11.40;99.90
13205;DHT22;6667;52.634;9.226;2023-03-01T11:40:54;11.00;99.90
13205;DHT22;6667;52.634;9.226;2023-03-01T11:43:29;10.30;99.90
13205;DHT22;6667;52.634;9.226;2023-03-01T11:46:14;10.70;99.90
13205;DHT22;6667;52.634;9.226;2023-03-01T11:48:55;10.30;99.90
13205;DHT22;6667;52.634;9.226;2023-03-01T11:51:37;10.20;99.90
13205;DHT22;6667;52.634;9.226;2023-03-01T11:54:16;10.70;99.90
13205;DHT22;6667;52.634;9.226;2023-03-01T11:56:50;10.50;99.90
13205;DHT22;6667;52.634;9.226;2023-03-01T11:59:45;10.00;99.90
13205;DHT22;6667;52.634;9.226;2023-03-01T12:02:48;10.20;99.90
13205;DHT22;6667;52.634;9.226;2023-03-01T12:05:25;9.90;99.90
13205;DHT22;6667;52.634;9.226;2023-03-01T12:08:01;10.10;99.90
13205;DHT22;6667;52.634;9.226;2023-03-01T12:10:36;9.80;99.90
13205;DHT22;6667;52.634;9.226;2023-03-01T12:13:25;9.70;99.90
13205;DHT22;6667;52.634;9.226;2023-03-01T12:16:07;10.20;99.90
13205;DHT22;6667;52.634;9.226;2023-03-01T12:18:57;9.80;99.90
13205;DHT22;6667;52.634;9.226;2023-03-01T12:21:35;9.90;99.90
13205;DHT22;6667;52.634;9.226;2023-03-01T12:24:20;9.60;99.90
13205;DHT22;6667;52.634;9.226;2023-03-01T12:27:00;9.20;99.90
13205;DHT22;6667;52.634;9.226;2023-03-01T12:29:32;9.50;99.90
13205;DHT22;6667;52.634;9.226;2023-03-01T12:32:15;10.30;99.90
13205;DHT22;6667;52.634;9.226;2023-03-01T12:35:01;9.90;99.90
13205;DHT22;6667;52.634;9.226;2023-03-01T12:37:39;9.70;99.90
13205;DHT22;6667;52.634;9.226;2023-03-01T12:40:24;10.30;99.90
13205;DHT22;6667;52.634;9.226;2023-03-01T12:43:02;10.50;99.90
13205;DHT22;6667;52.634;9.226;2023-03-01T12:45:46;10.20;99.90
13205;DHT22;6667;52.634;9.226;2023-03-01T12:48:27;10.90;99.90
13205;DHT22;6667;52.634;9.226;2023-03-01T12:50:59;10.60;99.90
13205;DHT22;6667;52.634;9.226;2023-03-01T12:53:31;10.20;99.90
13205;DHT22;6667;52.634;9.226;2023-03-01T12:56:00;10.50;99.90
13205;DHT22;6667;52.634;9.226;2023-03-01T12:58:31;10.80;99.90
13205;DHT22;6667;52.634;9.226;2023-03-01T13:01:15;10.30;99.90
13205;DHT22;6667;52.634;9.226;2023-03-01T13:04:00;9.80;99.90
13205;DHT22;6667;52.634;9.226;2023-03-01T13:06:34;9.70;99.90
13205;DHT22;6667;52.634;9.226;2023-03-01T13:09:09;9.70;99.90
13205;DHT22;6667;52.634;9.226;2023-03-01T13:11:36;10.60;99.90
13205;DHT22;6667;52.634;9.226;2023-03-01T13:17:29;11.30;99.90
13205;DHT22;6667;52.634;9.226;2023-03-01T13:19:57;11.60;99.90
13205;DHT22;6667;52.634;9.226;2023-03-01T13:22:30;11.70;99.90
13205;DHT22;6667;52.634;9.226;2023-03-01T13:25:02;11.30;99.90
13205;DHT22;6667;52.634;9.226;2023-03-01T13:27:29;10.80;99.90
13205;DHT22;6667;52.634;9.226;2023-03-01T13:29:57;10.60;99.90
13205;DHT22;6667;52.634;9.226;2023-03-01T13:32:27;11.10;99.90
13205;DHT22;6667;52.634;9.226;2023-03-01T13:34:57;11.10;99.90
13205;DHT22;6667;52.634;9.226;2023-03-01T13:37:38;11.50;99.90
13205;DHT22;6667;52.634;9.226;2023-03-01T13:43:30;11.10;99.90
13205;DHT22;6667;52.634;9.226;2023-03-01T13:45:58;11.80;99.90
13205;DHT22;6667;52.634;9.226;2023-03-01T13:48:29;12.00;99.90
13205;DHT22;6667;52.634;9.226;2023-03-01T13:50:59;11.90;99.90
13205;DHT22;6667;52.634;9.226;2023-03-01T13:53:30;11.30;99.90
13205;DHT22;6667;52.634;9.226;2023-03-01T13:56:00;11.10;99.90
13205;DHT22;6667;52.634;9.226;2023-03-01T13:58:29;11.80;99.90
13205;DHT22;6667;52.634;9.226;2023-03-01T14:00:59;11.20;99.90
13205;DHT22;6667;52.634;9.226;2023-03-01T14:03:28;10.80;99.90
13205;DHT22;6667;52.634;9.226;2023-03-01T14:06:03;11.30;99.90
13205;DHT22;6667;52.634;9.226;2023-03-01T14:08:32;11.40;99.90
13205;DHT22;6667;52.634;9.226;2023-03-01T14:14:01;11.40;99.90
13205;DHT22;6667;52.634;9.226;2023-03-01T14:16:41;11.10;99.90
13205;DHT22;6667;52.634;9.226;2023-03-01T14:19:17;11.20;99.90
13205;DHT22;6667;52.634;9.226;2023-03-01T14:21:46;11.00;99.90
13205;DHT22;6667;52.634;9.226;2023-03-01T14:24:21;10.90;99.90
13205;DHT22;6667;52.634;9.226;2023-03-01T14:26:49;10.40;99.90
13205;DHT22;6667;52.634;9.226;2023-03-01T14:29:24;10.50;99.90
13205;DHT22;6667;52.634;9.226;2023-03-01T14:31:51;10.60;99.90
13205;DHT22;6667;52.634;9.226;2023-03-01T14:34:21;10.50;99.90
13205;DHT22;6667;52.634;9.226;2023-03-01T14:36:48;10.30;99.90
13205;DHT22;6667;52.634;9.226;2023-03-01T14:39:19;10.20;99.90
13205;DHT22;6667;52.634;9.226;2023-03-01T14:41:46;10.30;99.90
13205;DHT22;6667;52.634;9.226;2023-03-01T14:44:18;10.30;99.90
13205;DHT22;6667;52.634;9.226;2023-03-01T14:46:46;10.20;99.90
13205;DHT22;6667;52.634;9.226;2023-03-01T14:49:15;10.20;99.90
13205;DHT22;6667;52.634;9.226;2023-03-01T14:51:50;10.20;99.90
13205;DHT22;6667;52.634;9.226;2023-03-01T14:54:21;10.20;99.90
13205;DHT22;6667;52.634;9.226;2023-03-01T14:56:51;10.00;99.90
13205;DHT22;6667;52.634;9.226;2023-03-01T14:59:21;10.00;99.90
13205;DHT22;6667;52.634;9.226;2023-03-01T15:01:48;9.90;99.90
13205;DHT22;6667;52.634;9.226;2023-03-01T15:04:15;9.80;99.90
13205;DHT22;6667;52.634;9.226;2023-03-01T15:06:44;9.80;99.90
13205;DHT22;6667;52.634;9.226;2023-03-01T15:09:13;9.80;99.90
13205;DHT22;6667;52.634;9.226;2023-03-01T15:11:41;9.80;99.90
13205;DHT22;6667;52.634;9.226;2023-03-01T15:14:42;9.70;99.90
13205;DHT22;6667;52.634;9.226;2023-03-01T15:17:23;9.30;99.90
13205;DHT22;6667;52.634;9.226;2023-03-01T15:19:52;9.10;99.90
13205;DHT22;6667;52.634;9.226;2023-03-01T15:22:21;9.10;99.90
13205;DHT22;6667;52.634;9.226;2023-03-01T15:24:49;9.10;99.90
13205;DHT22;6667;52.634;9.226;2023-03-01T15:27:18;9.20;99.90
13205;DHT22;6667;52.634;9.226;2023-03-01T15:29:50;9.00;99.90
13205;DHT22;6667;52.634;9.226;2023-03-01T15:32:25;9.10;99.90
13205;DHT22;6667;52.634;9.226;2023-03-01T15:34:52;9.00;99.90
13205;DHT22;6667;52.634;9.226;2023-03-01T15:37:40;9.00;99.90
13205;DHT22;6667;52.634;9.226;2023-03-01T15:40:21;8.70;99.90
13205;DHT22;6667;52.634;9.226;2023-03-01T15:42:50;8.80;99.90
13205;DHT22;6667;52.634;9.226;2023-03-01T15:45:23;8.80;99.90
13205;DHT22;6667;52.634;9.226;2023-03-01T15:47:52;8.70;99.90
13205;DHT22;6667;52.634;9.226;2023-03-01T15:50:22;8.60;99.90
13205;DHT22;6667;52.634;9.226;2023-03-01T15:52:50;8.60;99.90
13205;DHT22;6667;52.634;9.226;2023-03-01T15:55:20;8.70;99.90
13205;DHT22;6667;52.634;9.226;2023-03-01T15:57:47;8.70;99.90
13205;DHT22;6667;52.634;9.226;2023-03-01T16:00:15;8.60;99.90
13205;DHT22;6667;52.634;9.226;2023-03-01T16:02:43;8.70;99.90
13205;DHT22;6667;52.634;9.226;2023-03-01T16:05:17;8.60;99.90
13205;DHT22;6667;52.634;9.226;2023-03-01T16:07:45;8.40;99.90
13205;DHT22;6667;52.634;9.226;2023-03-01T16:10:13;8.30;99.90
13205;DHT22;6667;52.634;9.226;2023-03-01T16:12:39;8.20;99.90
13205;DHT22;6667;52.634;9.226;2023-03-01T16:15:13;8.40;99.90
13205;DHT22;6667;52.634;9.226;2023-03-01T16:17:42;8.30;99.90